AirNav   Air Wisconsin Airman Trainee
 
 626 users online  

9VG Campbell Field Airport
Weirwood, Virginia, USA

GOING TO WEIRWOOD?


FAA INFORMATION EFFECTIVE 28 FEBRUARY 2019

Location

FAA Identifier: 9VG
Lat/Long: 37-27-30.4900N / 075-52-43.7500W
37-27.508167N / 075-52.729167W
37.4584694 / -75.8788194
(estimated)
Elevation: 40 ft. / 12 m (estimated)
Variation: 08W (1970)
From city: 1 mile W of WEIRWOOD, VA
Time zone: UTC -5 (UTC -4 during Daylight Saving Time)
Zip code: 23413

Airport Operations

Airport use: Open to the public
Activation date: 11/1937
Control tower: no
ARTCC: WASHINGTON CENTER
FSS: LEESBURG FLIGHT SERVICE STATION
NOTAMs facility: DCA (NOTAM-D service available)
Attendance: MAR-NOV DAYLIGHT HOURS, DEC-FEB IREG
Wind indicator: yes
Segmented circle: no

Airport Communications

CTAF: 122.9
WX AWOS-3 at MFV (13 nm NE): 118.175 (757-787-5660)

Nearby radio navigation aids

VOR radial/distance  VOR name  Freq  Var
CCVr050/8.7CAPE CHARLES VORTAC112.2010W
ORFr031/37.3NORFOLK VORTAC116.9007W
HCMr096/39.7HARCUM VORTAC108.8007W

Airport Services

Parking: tiedowns

Runway Information

Runway 3/21

Dimensions: 3000 x 100 ft. / 914 x 30 m
Surface: turf, in good condition
RUNWAY 3  RUNWAY 21
Traffic pattern: leftleft
Obstructions: 60 ft. pline, marked, 300 ft. from runway, 5:1 slope to clear15 ft. road, 25 ft. from runway, 1:1 slope to clear

Runway 14/32

Dimensions: 1455 x 140 ft. / 443 x 43 m
Surface: turf, in good condition
RUNWAY 14  RUNWAY 32
Traffic pattern: leftleft
Obstructions: 15 ft. road, 20 ft. from runway, 1:1 slope to clear53 ft. trees, 555 ft. from runway, 19 ft. left of centerline, 10:1 slope to clear

Airport Ownership and Management from official FAA records

Ownership: Privately-owned
Owner: CAMPBELL FIELD INC.
PO BOX 64
NASSAWADOX, VA 23413-0084
Phone 914-772-6242
Manager: GORDON CAMPBELL
PO BOX 64
NASSAWADOX, VA 23413-0084
Phone 914-772-6242
AIRPORT OFFICE CALL 757-442-7519.

Airport Operational Statistics

Aircraft based on the field: 7
Single engine airplanes: 3
Ultralights: 4
    
Aircraft operations: avg 22/week *
87% local general aviation
12% transient general aviation
<1% military
* for 12-month period ending 04 March 1997

Additional Remarks

BE ALERT: 60 FT PLINES LCTD 300 FT SW OFF THE AER 03.
FOR CD CTC ORF APCH AT 757-464-0757.

Instrument Procedures

There are no published instrument procedures at 9VG.

Some nearby airports with instrument procedures:

KMFV - Accomack County Airport (13 nm NE)
KTGI - Tangier Island Airport (23 nm N)
W75 - Hummel Field Airport (28 nm W)
KLFI - Langley Air Force Base (32 nm SW)
W41 - Crisfield-Somerset County Airport (34 nm N)
 
Loc | Ops | Rwys | IFR | FBO | Links
Com | Nav | Svcs | Stats | Notes
Area around 9VG (Campbell Field Airport)
 
Road maps at: MapQuest Bing Google
 
Aerial photo
WARNING: Photo may not be current or correct
Aerial photo of 9VG (Campbell Field Airport)
Photo by Gordon Campbell / At Altitude Gallery
Photo taken 09-Jul-2017
looking south.

Do you have a better or more recent aerial photo of Campbell Field Airport that you would like to share? If so, please send us your photo.

 
Sectional chart

 
Airport distance calculator
Flying to Campbell Field Airport? Find the distance to fly.

From to 9VG

Sunrise and sunset
Times for 19-Mar-2019
 Local
(UTC-4)
 Zulu
(UTC)
Morning civil twilight06:4410:44
Sunrise07:1011:10
Sunset19:1323:13
Evening civil twilight19:3923:39

Current date and time
Zulu (UTC)  20-Mar-2019 03:59:03
Local (UTC-4)  19-Mar-2019 23:59:03
 
METAR
KMFV 
12nm NE 
200335Z AUTO 11003KT 10SM CLR 01/M01 A3043 RMK AO2 T00051011
KTGI 
23nm N 
200337Z AUTO 12006KT 10SM CLR 06/01 A3043 RMK AO1
TAF
KLFI 
33nm SW 
200100Z 2001/2107 08009KT 9999 SKC QNH3039INS BECMG 2020/2021 VRB06KT 9999 BKN040 QNH3007INS TX10/2016Z TN02/2009Z
KPHF 
35nm SW 
191720Z 1918/2018 03010KT P6SM BKN250 FM192200 06007KT P6SM SKC FM200200 VRB02KT P6SM SKC FM201500 07008KT P6SM SCT150
KORF 
37nm SW 
191720Z 1918/2018 01012KT P6SM BKN250 FM192200 03010KT P6SM BKN250 FM200000 06006KT P6SM SCT250 FM201200 05009KT P6SM BKN150
KNGU 
37nm SW 
1923/2023 04009KT 9999 FEW300 522009 522909 523802 QNH3038INS FM200100 06006KT 9999 FEW050 SCT280 522009 522909 523802 QNH3035INS FM201300 07010G15KT 9999 FEW030 SCT050 BKN250 500000 QNH3022INS T05/2007Z T11/2018Z FN00062
KNTU 
39nm S 
1923/2023 06008KT 9999 FEW250 552009 552909 QNH3035INS FM201200 06012KT BKN070 BKN300 500000 QNH3020INS FM202000 03012KT BKN020 OVC070 QNH3015INS T04/2010Z T09/2019Z FN20051
KFAF 
41nm SW 
191800Z 1918/2024 VRB06KT 9999 SKC QNH3034INS BECMG 2014/2015 06010G15KT 9999 SKC QNH3021INS BECMG 2023/2024 VRB06KT 9999 SCT045 QNH3021INS TX11/1919Z TN01/2011Z LAST NO AMDS AFT 2003 NEXT 2010
NOTAMs
Click for the latest NOTAMs
NOTAMs are issued by the DoD/FAA and will open in a separate window not controlled by AirNav.

 

 
 

FBO, Fuel Providers, and Aircraft Ground Support

  
 Business Name 
 
 Contact 
 
 Services / Description 
 
Fuel Prices
 
Comments
  
Eastern Shore Flying Service 757-442-7519
no information available

If you are affiliated with Eastern Shore Flying Service and would like to show here your services, contact info, web link, logo, and more, click here
no fuel
 
   write
Update Fuel Prices
 

Would you like to see your business listed on this page?

 If your business provides an interesting product or service to pilots, flight crews, aircraft, or users of the Campbell Field Airport, you should consider listing it here.  To start the listing process, click on the button below
 
Add a business
 

Other Pages about Campbell Field Airport

www.campbellfieldairport.com
www.flyvirginia.com/...
 
Update a link
 
Copyright © AirNav, LLC. All rights reserved. Privacy Policy  Contact